sensor_id;sensor_type;location;lat;lon;timestamp;P1;durP1;ratioP1;P2;durP2;ratioP2
29574;SDS011;16507;51.046;6.406;2023-03-03T00:02:23;90.65;;;37.67;;
29574;SDS011;16507;51.046;6.406;2023-03-03T00:04:48;87.38;;;36.05;;
29574;SDS011;16507;51.046;6.406;2023-03-03T00:07:14;86.28;;;37.25;;
29574;SDS011;16507;51.046;6.406;2023-03-03T00:09:45;91.10;;;38.30;;
29574;SDS011;16507;51.046;6.406;2023-03-03T00:12:17;91.25;;;39.17;;
29574;SDS011;16507;51.046;6.406;2023-03-03T00:14:48;94.82;;;39.17;;
29574;SDS011;16507;51.046;6.406;2023-03-03T00:17:17;94.03;;;40.85;;
29574;SDS011;16507;51.046;6.406;2023-03-03T00:19:45;98.00;;;40.28;;
29574;SDS011;16507;51.046;6.406;2023-03-03T00:22:25;92.90;;;38.90;;
29574;SDS011;16507;51.046;6.406;2023-03-03T00:24:54;101.90;;;38.47;;
29574;SDS011;16507;51.046;6.406;2023-03-03T00:27:29;100.40;;;41.47;;
29574;SDS011;16507;51.046;6.406;2023-03-03T00:29:58;100.47;;;40.78;;
29574;SDS011;16507;51.046;6.406;2023-03-03T00:32:36;104.00;;;40.10;;
29574;SDS011;16507;51.046;6.406;2023-03-03T00:40:35;110.57;;;41.63;;
29574;SDS011;16507;51.046;6.406;2023-03-03T00:43:12;118.85;;;43.83;;
29574;SDS011;16507;51.046;6.406;2023-03-03T00:45:43;115.50;;;42.80;;
29574;SDS011;16507;51.046;6.406;2023-03-03T00:48:20;110.95;;;42.45;;
29574;SDS011;16507;51.046;6.406;2023-03-03T00:51:09;118.60;;;43.60;;
29574;SDS011;16507;51.046;6.406;2023-03-03T00:53:47;96.60;;;32.70;;
29574;SDS011;16507;51.046;6.406;2023-03-03T00:56:13;118.90;;;45.10;;
29574;SDS011;16507;51.046;6.406;2023-03-03T00:58:39;123.85;;;45.05;;
29574;SDS011;16507;51.046;6.406;2023-03-03T01:01:05;122.28;;;45.10;;
29574;SDS011;16507;51.046;6.406;2023-03-03T01:03:30;117.85;;;42.70;;
29574;SDS011;16507;51.046;6.406;2023-03-03T01:05:56;127.97;;;45.83;;
29574;SDS011;16507;51.046;6.406;2023-03-03T01:08:22;132.52;;;44.50;;
29574;SDS011;16507;51.046;6.406;2023-03-03T01:10:52;126.30;;;44.50;;
29574;SDS011;16507;51.046;6.406;2023-03-03T01:13:23;115.80;;;38.25;;
29574;SDS011;16507;51.046;6.406;2023-03-03T01:15:54;137.32;;;43.05;;
29574;SDS011;16507;51.046;6.406;2023-03-03T01:18:19;129.60;;;44.78;;
29574;SDS011;16507;51.046;6.406;2023-03-03T01:20:45;131.82;;;43.38;;
29574;SDS011;16507;51.046;6.406;2023-03-03T01:23:11;125.47;;;41.92;;
29574;SDS011;16507;51.046;6.406;2023-03-03T01:25:37;122.72;;;41.13;;
29574;SDS011;16507;51.046;6.406;2023-03-03T01:28:03;112.97;;;39.03;;
29574;SDS011;16507;51.046;6.406;2023-03-03T01:30:29;117.53;;;42.95;;
29574;SDS011;16507;51.046;6.406;2023-03-03T01:32:58;134.10;;;45.22;;
29574;SDS011;16507;51.046;6.406;2023-03-03T01:35:24;128.57;;;41.45;;
29574;SDS011;16507;51.046;6.406;2023-03-03T01:37:50;144.27;;;48.03;;
29574;SDS011;16507;51.046;6.406;2023-03-03T01:40:17;129.02;;;43.65;;
29574;SDS011;16507;51.046;6.406;2023-03-03T01:42:45;154.55;;;49.78;;
29574;SDS011;16507;51.046;6.406;2023-03-03T01:45:13;151.85;;;46.28;;
29574;SDS011;16507;51.046;6.406;2023-03-03T01:47:46;149.88;;;46.65;;
29574;SDS011;16507;51.046;6.406;2023-03-03T01:50:20;127.88;;;43.08;;
29574;SDS011;16507;51.046;6.406;2023-03-03T01:52:59;145.25;;;49.08;;
29574;SDS011;16507;51.046;6.406;2023-03-03T01:55:29;146.20;;;47.00;;
29574;SDS011;16507;51.046;6.406;2023-03-03T01:58:06;149.20;;;46.38;;
29574;SDS011;16507;51.046;6.406;2023-03-03T02:00:40;135.45;;;43.47;;
29574;SDS011;16507;51.046;6.406;2023-03-03T02:03:07;149.15;;;46.60;;
29574;SDS011;16507;51.046;6.406;2023-03-03T02:05:33;175.25;;;55.47;;
29574;SDS011;16507;51.046;6.406;2023-03-03T02:07:59;159.60;;;49.00;;
29574;SDS011;16507;51.046;6.406;2023-03-03T02:10:26;160.52;;;51.78;;
29574;SDS011;16507;51.046;6.406;2023-03-03T02:12:54;182.93;;;56.72;;
29574;SDS011;16507;51.046;6.406;2023-03-03T02:15:22;187.43;;;57.90;;
29574;SDS011;16507;51.046;6.406;2023-03-03T02:18:06;182.40;;;60.08;;
29574;SDS011;16507;51.046;6.406;2023-03-03T02:28:25;203.90;;;65.18;;
29574;SDS011;16507;51.046;6.406;2023-03-03T02:30:53;178.00;;;55.85;;
29574;SDS011;16507;51.046;6.406;2023-03-03T02:33:20;203.90;;;64.57;;
29574;SDS011;16507;51.046;6.406;2023-03-03T02:35:46;192.32;;;61.30;;
29574;SDS011;16507;51.046;6.406;2023-03-03T02:38:23;185.95;;;58.70;;
29574;SDS011;16507;51.046;6.406;2023-03-03T02:43:44;198.70;;;61.63;;
29574;SDS011;16507;51.046;6.406;2023-03-03T02:46:18;194.07;;;59.78;;
29574;SDS011;16507;51.046;6.406;2023-03-03T02:48:43;206.55;;;61.42;;
29574;SDS011;16507;51.046;6.406;2023-03-03T02:51:09;204.00;;;64.65;;
29574;SDS011;16507;51.046;6.406;2023-03-03T02:53:35;194.75;;;59.83;;
29574;SDS011;16507;51.046;6.406;2023-03-03T02:56:00;184.05;;;62.00;;
29574;SDS011;16507;51.046;6.406;2023-03-03T02:58:28;172.38;;;55.33;;
29574;SDS011;16507;51.046;6.406;2023-03-03T03:00:54;176.57;;;56.40;;
29574;SDS011;16507;51.046;6.406;2023-03-03T03:03:20;185.23;;;56.80;;
29574;SDS011;16507;51.046;6.406;2023-03-03T03:05:45;183.68;;;58.90;;
29574;SDS011;16507;51.046;6.406;2023-03-03T03:08:11;171.20;;;58.28;;
29574;SDS011;16507;51.046;6.406;2023-03-03T03:10:36;172.98;;;55.17;;
29574;SDS011;16507;51.046;6.406;2023-03-03T03:13:02;168.48;;;57.38;;
29574;SDS011;16507;51.046;6.406;2023-03-03T03:15:27;174.48;;;58.40;;
29574;SDS011;16507;51.046;6.406;2023-03-03T03:17:53;189.25;;;61.35;;
29574;SDS011;16507;51.046;6.406;2023-03-03T03:20:19;185.20;;;61.17;;
29574;SDS011;16507;51.046;6.406;2023-03-03T03:22:44;191.02;;;62.83;;
29574;SDS011;16507;51.046;6.406;2023-03-03T03:25:10;194.30;;;61.45;;
29574;SDS011;16507;51.046;6.406;2023-03-03T03:27:36;185.55;;;59.28;;
29574;SDS011;16507;51.046;6.406;2023-03-03T03:30:01;177.75;;;60.72;;
29574;SDS011;16507;51.046;6.406;2023-03-03T03:32:27;185.50;;;60.90;;
29574;SDS011;16507;51.046;6.406;2023-03-03T03:34:53;185.52;;;59.85;;
29574;SDS011;16507;51.046;6.406;2023-03-03T03:37:18;188.90;;;63.53;;
29574;SDS011;16507;51.046;6.406;2023-03-03T03:39:44;197.32;;;66.80;;
29574;SDS011;16507;51.046;6.406;2023-03-03T03:42:10;185.95;;;64.93;;
29574;SDS011;16507;51.046;6.406;2023-03-03T03:44:35;179.02;;;61.10;;
29574;SDS011;16507;51.046;6.406;2023-03-03T03:47:01;173.95;;;59.10;;
29574;SDS011;16507;51.046;6.406;2023-03-03T03:49:26;175.15;;;60.75;;
29574;SDS011;16507;51.046;6.406;2023-03-03T03:51:52;173.90;;;61.33;;
29574;SDS011;16507;51.046;6.406;2023-03-03T03:54:18;179.00;;;63.42;;
29574;SDS011;16507;51.046;6.406;2023-03-03T03:56:43;157.80;;;55.30;;
29574;SDS011;16507;51.046;6.406;2023-03-03T03:59:09;157.15;;;55.70;;
29574;SDS011;16507;51.046;6.406;2023-03-03T04:01:34;152.57;;;53.83;;
29574;SDS011;16507;51.046;6.406;2023-03-03T04:04:00;140.05;;;47.55;;
29574;SDS011;16507;51.046;6.406;2023-03-03T04:06:27;157.27;;;52.55;;
29574;SDS011;16507;51.046;6.406;2023-03-03T04:08:53;143.32;;;49.85;;
29574;SDS011;16507;51.046;6.406;2023-03-03T04:11:19;145.15;;;49.10;;
29574;SDS011;16507;51.046;6.406;2023-03-03T04:13:45;146.23;;;51.33;;
29574;SDS011;16507;51.046;6.406;2023-03-03T04:16:10;139.00;;;49.00;;
29574;SDS011;16507;51.046;6.406;2023-03-03T04:18:36;137.45;;;49.05;;
29574;SDS011;16507;51.046;6.406;2023-03-03T04:21:02;141.00;;;48.75;;
29574;SDS011;16507;51.046;6.406;2023-03-03T04:23:28;134.35;;;45.13;;
29574;SDS011;16507;51.046;6.406;2023-03-03T04:25:53;138.43;;;45.42;;
29574;SDS011;16507;51.046;6.406;2023-03-03T04:28:19;121.60;;;42.22;;
29574;SDS011;16507;51.046;6.406;2023-03-03T04:30:45;131.95;;;42.80;;
29574;SDS011;16507;51.046;6.406;2023-03-03T04:33:11;126.25;;;45.13;;
29574;SDS011;16507;51.046;6.406;2023-03-03T04:35:37;122.57;;;43.90;;
29574;SDS011;16507;51.046;6.406;2023-03-03T04:38:02;138.32;;;46.20;;
29574;SDS011;16507;51.046;6.406;2023-03-03T04:40:29;142.05;;;48.03;;
29574;SDS011;16507;51.046;6.406;2023-03-03T04:42:55;151.48;;;49.30;;
29574;SDS011;16507;51.046;6.406;2023-03-03T04:45:20;139.43;;;48.33;;
29574;SDS011;16507;51.046;6.406;2023-03-03T04:47:46;154.45;;;49.25;;
29574;SDS011;16507;51.046;6.406;2023-03-03T04:50:12;140.55;;;47.42;;
29574;SDS011;16507;51.046;6.406;2023-03-03T04:52:38;156.82;;;51.72;;
29574;SDS011;16507;51.046;6.406;2023-03-03T04:55:03;145.73;;;48.83;;
29574;SDS011;16507;51.046;6.406;2023-03-03T04:57:29;149.60;;;47.85;;
29574;SDS011;16507;51.046;6.406;2023-03-03T04:59:55;156.50;;;53.35;;
29574;SDS011;16507;51.046;6.406;2023-03-03T05:02:21;163.43;;;53.78;;
29574;SDS011;16507;51.046;6.406;2023-03-03T05:04:47;154.65;;;52.97;;
29574;SDS011;16507;51.046;6.406;2023-03-03T05:07:12;152.98;;;51.67;;
29574;SDS011;16507;51.046;6.406;2023-03-03T05:09:38;160.35;;;52.90;;
29574;SDS011;16507;51.046;6.406;2023-03-03T05:12:04;163.50;;;53.83;;
29574;SDS011;16507;51.046;6.406;2023-03-03T05:14:30;155.05;;;52.42;;
29574;SDS011;16507;51.046;6.406;2023-03-03T05:16:55;165.55;;;55.20;;
29574;SDS011;16507;51.046;6.406;2023-03-03T05:19:21;165.52;;;55.97;;
29574;SDS011;16507;51.046;6.406;2023-03-03T05:21:47;168.98;;;57.08;;
29574;SDS011;16507;51.046;6.406;2023-03-03T05:24:13;164.50;;;53.70;;
29574;SDS011;16507;51.046;6.406;2023-03-03T05:26:38;151.02;;;49.58;;
29574;SDS011;16507;51.046;6.406;2023-03-03T05:29:05;171.07;;;51.83;;
29574;SDS011;16507;51.046;6.406;2023-03-03T05:31:31;165.93;;;55.08;;
29574;SDS011;16507;51.046;6.406;2023-03-03T05:33:57;176.10;;;57.10;;
29574;SDS011;16507;51.046;6.406;2023-03-03T05:36:22;168.52;;;55.47;;
29574;SDS011;16507;51.046;6.406;2023-03-03T05:38:48;179.10;;;56.88;;
29574;SDS011;16507;51.046;6.406;2023-03-03T05:41:14;182.23;;;59.30;;
29574;SDS011;16507;51.046;6.406;2023-03-03T05:43:40;194.25;;;58.35;;
29574;SDS011;16507;51.046;6.406;2023-03-03T05:46:06;186.00;;;55.00;;
29574;SDS011;16507;51.046;6.406;2023-03-03T05:48:31;189.82;;;57.97;;
29574;SDS011;16507;51.046;6.406;2023-03-03T05:50:57;186.98;;;58.10;;
29574;SDS011;16507;51.046;6.406;2023-03-03T05:53:24;186.50;;;56.50;;
29574;SDS011;16507;51.046;6.406;2023-03-03T05:55:50;187.00;;;56.65;;
29574;SDS011;16507;51.046;6.406;2023-03-03T05:58:15;186.95;;;58.20;;
29574;SDS011;16507;51.046;6.406;2023-03-03T06:00:41;178.13;;;53.85;;
29574;SDS011;16507;51.046;6.406;2023-03-03T06:03:06;188.88;;;56.30;;
29574;SDS011;16507;51.046;6.406;2023-03-03T06:05:32;180.45;;;54.88;;
29574;SDS011;16507;51.046;6.406;2023-03-03T06:07:58;175.63;;;55.33;;
29574;SDS011;16507;51.046;6.406;2023-03-03T06:10:24;175.38;;;56.70;;
29574;SDS011;16507;51.046;6.406;2023-03-03T06:12:49;188.13;;;58.10;;
29574;SDS011;16507;51.046;6.406;2023-03-03T06:15:16;186.50;;;56.50;;
29574;SDS011;16507;51.046;6.406;2023-03-03T06:17:41;186.88;;;55.67;;
29574;SDS011;16507;51.046;6.406;2023-03-03T06:20:07;168.82;;;56.25;;
29574;SDS011;16507;51.046;6.406;2023-03-03T06:22:34;169.50;;;53.33;;
29574;SDS011;16507;51.046;6.406;2023-03-03T06:24:59;163.52;;;51.05;;
29574;SDS011;16507;51.046;6.406;2023-03-03T06:27:25;147.30;;;46.65;;
29574;SDS011;16507;51.046;6.406;2023-03-03T06:29:50;136.75;;;44.40;;
29574;SDS011;16507;51.046;6.406;2023-03-03T06:32:16;154.82;;;47.70;;
29574;SDS011;16507;51.046;6.406;2023-03-03T06:34:42;154.38;;;48.17;;
29574;SDS011;16507;51.046;6.406;2023-03-03T06:37:07;136.38;;;44.53;;
29574;SDS011;16507;51.046;6.406;2023-03-03T06:39:33;137.60;;;45.42;;
29574;SDS011;16507;51.046;6.406;2023-03-03T06:41:59;141.48;;;43.50;;
29574;SDS011;16507;51.046;6.406;2023-03-03T06:44:24;155.35;;;45.25;;
29574;SDS011;16507;51.046;6.406;2023-03-03T06:46:50;140.85;;;45.03;;
29574;SDS011;16507;51.046;6.406;2023-03-03T06:49:16;134.38;;;43.28;;
29574;SDS011;16507;51.046;6.406;2023-03-03T06:51:41;149.13;;;47.22;;
29574;SDS011;16507;51.046;6.406;2023-03-03T06:54:15;143.38;;;46.50;;
29574;SDS011;16507;51.046;6.406;2023-03-03T06:56:42;158.15;;;48.15;;
29574;SDS011;16507;51.046;6.406;2023-03-03T06:59:20;149.32;;;45.22;;
29574;SDS011;16507;51.046;6.406;2023-03-03T07:01:46;148.50;;;46.47;;
29574;SDS011;16507;51.046;6.406;2023-03-03T07:11:50;145.80;;;46.75;;
29574;SDS011;16507;51.046;6.406;2023-03-03T07:14:18;140.07;;;46.05;;
29574;SDS011;16507;51.046;6.406;2023-03-03T07:16:44;146.45;;;47.10;;
29574;SDS011;16507;51.046;6.406;2023-03-03T07:19:13;149.13;;;46.80;;
29574;SDS011;16507;51.046;6.406;2023-03-03T07:21:43;147.13;;;47.08;;
29574;SDS011;16507;51.046;6.406;2023-03-03T07:24:30;126.75;;;41.40;;
29574;SDS011;16507;51.046;6.406;2023-03-03T07:26:58;133.40;;;42.00;;
29574;SDS011;16507;51.046;6.406;2023-03-03T07:29:30;124.25;;;40.92;;
29574;SDS011;16507;51.046;6.406;2023-03-03T07:31:58;127.13;;;41.17;;
29574;SDS011;16507;51.046;6.406;2023-03-03T07:34:38;114.95;;;39.58;;
29574;SDS011;16507;51.046;6.406;2023-03-03T07:37:10;99.05;;;37.03;;
29574;SDS011;16507;51.046;6.406;2023-03-03T07:39:42;108.78;;;37.67;;
29574;SDS011;16507;51.046;6.406;2023-03-03T07:44:51;131.25;;;41.67;;
29574;SDS011;16507;51.046;6.406;2023-03-03T07:47:24;118.72;;;41.20;;
29574;SDS011;16507;51.046;6.406;2023-03-03T07:49:53;126.38;;;40.90;;
29574;SDS011;16507;51.046;6.406;2023-03-03T07:54:56;137.20;;;46.90;;
29574;SDS011;16507;51.046;6.406;2023-03-03T08:00:04;130.73;;;43.92;;
29574;SDS011;16507;51.046;6.406;2023-03-03T08:03:25;124.85;;;42.63;;
29574;SDS011;16507;51.046;6.406;2023-03-03T08:10:54;119.75;;;41.92;;
29574;SDS011;16507;51.046;6.406;2023-03-03T08:13:27;116.65;;;37.78;;
29574;SDS011;16507;51.046;6.406;2023-03-03T08:18:34;104.28;;;37.88;;
29574;SDS011;16507;51.046;6.406;2023-03-03T08:21:17;105.50;;;35.78;;
29574;SDS011;16507;51.046;6.406;2023-03-03T08:23:46;99.93;;;34.90;;
29574;SDS011;16507;51.046;6.406;2023-03-03T08:26:17;102.72;;;35.08;;
29574;SDS011;16507;51.046;6.406;2023-03-03T08:28:44;96.30;;;35.22;;
29574;SDS011;16507;51.046;6.406;2023-03-03T08:31:10;105.60;;;36.97;;
29574;SDS011;16507;51.046;6.406;2023-03-03T08:33:36;113.45;;;36.00;;
29574;SDS011;16507;51.046;6.406;2023-03-03T08:36:02;101.50;;;35.47;;
29574;SDS011;16507;51.046;6.406;2023-03-03T08:38:28;107.22;;;37.15;;
29574;SDS011;16507;51.046;6.406;2023-03-03T08:40:54;104.13;;;36.85;;
29574;SDS011;16507;51.046;6.406;2023-03-03T08:43:20;126.30;;;40.00;;
29574;SDS011;16507;51.046;6.406;2023-03-03T08:45:50;116.13;;;40.55;;
29574;SDS011;16507;51.046;6.406;2023-03-03T08:48:18;101.97;;;37.30;;
29574;SDS011;16507;51.046;6.406;2023-03-03T08:50:45;103.05;;;35.63;;
29574;SDS011;16507;51.046;6.406;2023-03-03T08:53:11;112.93;;;39.25;;
29574;SDS011;16507;51.046;6.406;2023-03-03T08:55:38;113.38;;;38.45;;
29574;SDS011;16507;51.046;6.406;2023-03-03T08:58:05;114.70;;;37.30;;
29574;SDS011;16507;51.046;6.406;2023-03-03T09:00:31;112.68;;;39.03;;
29574;SDS011;16507;51.046;6.406;2023-03-03T09:02:57;109.55;;;37.90;;
29574;SDS011;16507;51.046;6.406;2023-03-03T09:05:23;117.63;;;41.00;;
29574;SDS011;16507;51.046;6.406;2023-03-03T09:07:50;116.35;;;42.00;;
29574;SDS011;16507;51.046;6.406;2023-03-03T09:10:18;128.05;;;41.72;;
29574;SDS011;16507;51.046;6.406;2023-03-03T09:12:51;124.07;;;40.97;;
29574;SDS011;16507;51.046;6.406;2023-03-03T09:17:54;128.05;;;43.42;;
29574;SDS011;16507;51.046;6.406;2023-03-03T09:20:26;127.15;;;44.92;;
29574;SDS011;16507;51.046;6.406;2023-03-03T09:31:42;144.18;;;48.72;;
29574;SDS011;16507;51.046;6.406;2023-03-03T09:36:45;138.77;;;48.17;;
29574;SDS011;16507;51.046;6.406;2023-03-03T09:39:18;138.05;;;50.67;;
29574;SDS011;16507;51.046;6.406;2023-03-03T09:44:46;137.80;;;49.85;;
29574;SDS011;16507;51.046;6.406;2023-03-03T09:53:23;136.00;;;48.47;;
29574;SDS011;16507;51.046;6.406;2023-03-03T09:58:58;154.55;;;53.72;;
29574;SDS011;16507;51.046;6.406;2023-03-03T10:06:33;158.73;;;53.05;;
29574;SDS011;16507;51.046;6.406;2023-03-03T10:11:57;159.20;;;55.88;;
29574;SDS011;16507;51.046;6.406;2023-03-03T10:17:28;167.02;;;55.53;;
29574;SDS011;16507;51.046;6.406;2023-03-03T10:34:15;177.07;;;62.33;;
29574;SDS011;16507;51.046;6.406;2023-03-03T10:40:16;177.55;;;62.80;;
29574;SDS011;16507;51.046;6.406;2023-03-03T10:55:47;146.88;;;53.40;;
29574;SDS011;16507;51.046;6.406;2023-03-03T11:00:55;154.35;;;56.05;;
29574;SDS011;16507;51.046;6.406;2023-03-03T11:06:33;169.05;;;61.65;;
29574;SDS011;16507;51.046;6.406;2023-03-03T11:11:45;156.30;;;56.08;;
29574;SDS011;16507;51.046;6.406;2023-03-03T11:14:30;159.63;;;58.53;;
29574;SDS011;16507;51.046;6.406;2023-03-03T11:25:37;154.23;;;55.38;;
29574;SDS011;16507;51.046;6.406;2023-03-03T11:31:25;166.15;;;60.00;;
29574;SDS011;16507;51.046;6.406;2023-03-03T11:34:18;157.88;;;59.63;;
29574;SDS011;16507;51.046;6.406;2023-03-03T11:39:30;148.32;;;57.08;;
29574;SDS011;16507;51.046;6.406;2023-03-03T11:44:29;142.43;;;55.30;;
29574;SDS011;16507;51.046;6.406;2023-03-03T11:52:18;143.57;;;51.78;;
29574;SDS011;16507;51.046;6.406;2023-03-03T11:55:08;145.98;;;50.40;;
29574;SDS011;16507;51.046;6.406;2023-03-03T11:57:42;150.82;;;54.95;;
29574;SDS011;16507;51.046;6.406;2023-03-03T12:03:01;141.45;;;50.88;;
29574;SDS011;16507;51.046;6.406;2023-03-03T12:13:21;149.98;;;55.00;;
29574;SDS011;16507;51.046;6.406;2023-03-03T12:16:24;151.40;;;54.88;;
29574;SDS011;16507;51.046;6.406;2023-03-03T12:26:43;157.63;;;58.88;;
29574;SDS011;16507;51.046;6.406;2023-03-03T12:29:32;150.03;;;55.30;;
29574;SDS011;16507;51.046;6.406;2023-03-03T12:40:13;154.38;;;59.00;;
29574;SDS011;16507;51.046;6.406;2023-03-03T12:51:09;161.27;;;61.45;;
29574;SDS011;16507;51.046;6.406;2023-03-03T12:59:08;162.82;;;62.22;;
29574;SDS011;16507;51.046;6.406;2023-03-03T13:15:52;152.93;;;59.28;;
29574;SDS011;16507;51.046;6.406;2023-03-03T13:26:36;158.45;;;59.03;;
29574;SDS011;16507;51.046;6.406;2023-03-03T13:32:01;165.05;;;62.50;;
29574;SDS011;16507;51.046;6.406;2023-03-03T13:34:36;162.48;;;59.35;;
29574;SDS011;16507;51.046;6.406;2023-03-03T13:37:21;170.20;;;65.13;;
29574;SDS011;16507;51.046;6.406;2023-03-03T13:42:38;159.13;;;59.80;;
29574;SDS011;16507;51.046;6.406;2023-03-03T13:45:40;160.40;;;61.15;;
29574;SDS011;16507;51.046;6.406;2023-03-03T13:54:05;165.60;;;61.85;;
29574;SDS011;16507;51.046;6.406;2023-03-03T14:05:03;158.63;;;62.08;;
29574;SDS011;16507;51.046;6.406;2023-03-03T14:12:49;168.35;;;64.20;;
29574;SDS011;16507;51.046;6.406;2023-03-03T14:20:52;154.93;;;55.05;;
29574;SDS011;16507;51.046;6.406;2023-03-03T14:23:41;165.52;;;61.38;;
29574;SDS011;16507;51.046;6.406;2023-03-03T14:26:44;162.32;;;61.45;;
29574;SDS011;16507;51.046;6.406;2023-03-03T14:31:51;154.60;;;58.42;;
29574;SDS011;16507;51.046;6.406;2023-03-03T14:34:33;149.52;;;59.55;;
29574;SDS011;16507;51.046;6.406;2023-03-03T14:39:50;149.98;;;57.70;;
29574;SDS011;16507;51.046;6.406;2023-03-03T14:42:37;147.95;;;55.90;;
29574;SDS011;16507;51.046;6.406;2023-03-03T14:48:16;149.40;;;56.95;;
29574;SDS011;16507;51.046;6.406;2023-03-03T14:50:43;155.60;;;58.28;;
29574;SDS011;16507;51.046;6.406;2023-03-03T14:53:34;149.43;;;55.90;;
29574;SDS011;16507;51.046;6.406;2023-03-03T14:58:47;142.20;;;53.42;;
29574;SDS011;16507;51.046;6.406;2023-03-03T15:04:00;139.60;;;53.47;;
29574;SDS011;16507;51.046;6.406;2023-03-03T15:06:47;137.77;;;53.10;;
29574;SDS011;16507;51.046;6.406;2023-03-03T15:09:28;130.73;;;52.60;;
29574;SDS011;16507;51.046;6.406;2023-03-03T15:22:47;122.85;;;51.05;;
29574;SDS011;16507;51.046;6.406;2023-03-03T15:27:52;124.07;;;54.47;;
29574;SDS011;16507;51.046;6.406;2023-03-03T15:30:34;119.05;;;52.22;;
29574;SDS011;16507;51.046;6.406;2023-03-03T15:33:24;122.03;;;53.40;;
29574;SDS011;16507;51.046;6.406;2023-03-03T15:38:53;114.30;;;51.60;;
29574;SDS011;16507;51.046;6.406;2023-03-03T16:01:26;119.95;;;51.72;;
29574;SDS011;16507;51.046;6.406;2023-03-03T16:04:13;122.95;;;52.25;;
29574;SDS011;16507;51.046;6.406;2023-03-03T16:06:46;123.22;;;51.10;;
29574;SDS011;16507;51.046;6.406;2023-03-03T16:14:53;115.45;;;52.75;;
29574;SDS011;16507;51.046;6.406;2023-03-03T16:18:07;115.00;;;51.17;;
29574;SDS011;16507;51.046;6.406;2023-03-03T16:23:20;96.65;;;46.22;;
29574;SDS011;16507;51.046;6.406;2023-03-03T16:25:51;104.30;;;44.63;;
29574;SDS011;16507;51.046;6.406;2023-03-03T16:47:38;94.20;;;42.67;;
29574;SDS011;16507;51.046;6.406;2023-03-03T16:50:24;106.15;;;41.97;;
29574;SDS011;16507;51.046;6.406;2023-03-03T16:53:14;99.20;;;44.00;;
29574;SDS011;16507;51.046;6.406;2023-03-03T16:58:56;104.32;;;47.20;;
29574;SDS011;16507;51.046;6.406;2023-03-03T17:01:28;79.23;;;34.50;;
29574;SDS011;16507;51.046;6.406;2023-03-03T17:04:00;100.63;;;44.08;;
29574;SDS011;16507;51.046;6.406;2023-03-03T17:06:45;89.32;;;41.05;;
29574;SDS011;16507;51.046;6.406;2023-03-03T17:09:22;96.22;;;41.58;;
29574;SDS011;16507;51.046;6.406;2023-03-03T17:17:41;91.50;;;39.67;;
29574;SDS011;16507;51.046;6.406;2023-03-03T17:34:02;135.48;;;56.67;;
29574;SDS011;16507;51.046;6.406;2023-03-03T17:45:09;111.30;;;44.85;;
29574;SDS011;16507;51.046;6.406;2023-03-03T18:14:53;131.18;;;51.75;;
29574;SDS011;16507;51.046;6.406;2023-03-03T18:29:20;146.27;;;51.05;;
29574;SDS011;16507;51.046;6.406;2023-03-03T18:34:40;143.50;;;52.83;;
29574;SDS011;16507;51.046;6.406;2023-03-03T18:37:07;151.02;;;55.15;;
29574;SDS011;16507;51.046;6.406;2023-03-03T18:40:42;148.43;;;54.65;;
29574;SDS011;16507;51.046;6.406;2023-03-03T18:42:58;150.02;;;55.58;;
29574;SDS011;16507;51.046;6.406;2023-03-03T18:46:02;148.73;;;54.92;;
29574;SDS011;16507;51.046;6.406;2023-03-03T18:48:44;157.18;;;53.72;;
29574;SDS011;16507;51.046;6.406;2023-03-03T18:51:09;151.93;;;54.50;;
29574;SDS011;16507;51.046;6.406;2023-03-03T18:53:35;152.93;;;53.08;;
29574;SDS011;16507;51.046;6.406;2023-03-03T18:56:01;153.85;;;51.80;;
29574;SDS011;16507;51.046;6.406;2023-03-03T19:08:53;161.77;;;58.42;;
29574;SDS011;16507;51.046;6.406;2023-03-03T19:16:54;160.82;;;59.10;;
29574;SDS011;16507;51.046;6.406;2023-03-03T19:19:28;146.27;;;53.45;;
29574;SDS011;16507;51.046;6.406;2023-03-03T19:22:18;150.93;;;54.05;;
29574;SDS011;16507;51.046;6.406;2023-03-03T19:27:44;155.95;;;56.42;;
29574;SDS011;16507;51.046;6.406;2023-03-03T19:30:31;148.52;;;54.40;;
29574;SDS011;16507;51.046;6.406;2023-03-03T19:33:03;138.60;;;50.17;;
29574;SDS011;16507;51.046;6.406;2023-03-03T19:35:52;122.78;;;44.15;;
29574;SDS011;16507;51.046;6.406;2023-03-03T19:47:05;115.22;;;40.17;;
29574;SDS011;16507;51.046;6.406;2023-03-03T19:49:58;106.15;;;40.38;;
29574;SDS011;16507;51.046;6.406;2023-03-03T19:58:20;101.50;;;38.42;;
29574;SDS011;16507;51.046;6.406;2023-03-03T20:00:56;107.30;;;37.63;;
29574;SDS011;16507;51.046;6.406;2023-03-03T20:03:46;122.63;;;40.90;;
29574;SDS011;16507;51.046;6.406;2023-03-03T20:06:48;111.00;;;39.13;;
29574;SDS011;16507;51.046;6.406;2023-03-03T20:09:46;114.97;;;41.50;;
29574;SDS011;16507;51.046;6.406;2023-03-03T20:15:18;109.47;;;38.45;;
29574;SDS011;16507;51.046;6.406;2023-03-03T20:17:56;110.00;;;38.30;;
29574;SDS011;16507;51.046;6.406;2023-03-03T20:23:12;125.68;;;44.97;;
29574;SDS011;16507;51.046;6.406;2023-03-03T20:42:21;96.95;;;33.85;;
29574;SDS011;16507;51.046;6.406;2023-03-03T20:56:09;96.05;;;32.60;;
29574;SDS011;16507;51.046;6.406;2023-03-03T21:02:01;93.65;;;33.67;;
29574;SDS011;16507;51.046;6.406;2023-03-03T21:04:27;102.80;;;33.97;;
29574;SDS011;16507;51.046;6.406;2023-03-03T21:06:54;89.22;;;32.33;;
29574;SDS011;16507;51.046;6.406;2023-03-03T21:11:46;94.90;;;33.88;;
29574;SDS011;16507;51.046;6.406;2023-03-03T21:14:20;91.65;;;32.83;;
29574;SDS011;16507;51.046;6.406;2023-03-03T21:16:48;92.50;;;31.83;;
29574;SDS011;16507;51.046;6.406;2023-03-03T21:19:22;88.03;;;31.30;;
29574;SDS011;16507;51.046;6.406;2023-03-03T21:21:53;88.50;;;30.70;;
29574;SDS011;16507;51.046;6.406;2023-03-03T21:24:19;92.05;;;31.88;;
29574;SDS011;16507;51.046;6.406;2023-03-03T21:26:59;88.30;;;30.35;;
29574;SDS011;16507;51.046;6.406;2023-03-03T21:29:26;85.68;;;29.77;;
29574;SDS011;16507;51.046;6.406;2023-03-03T21:32:00;80.18;;;26.98;;
29574;SDS011;16507;51.046;6.406;2023-03-03T21:34:34;79.03;;;28.30;;
29574;SDS011;16507;51.046;6.406;2023-03-03T21:37:05;80.13;;;27.65;;
29574;SDS011;16507;51.046;6.406;2023-03-03T21:39:34;77.78;;;28.02;;
29574;SDS011;16507;51.046;6.406;2023-03-03T21:42:08;83.68;;;27.65;;
29574;SDS011;16507;51.046;6.406;2023-03-03T21:45:07;84.10;;;28.40;;
29574;SDS011;16507;51.046;6.406;2023-03-03T21:47:37;80.18;;;26.65;;
29574;SDS011;16507;51.046;6.406;2023-03-03T21:50:03;71.22;;;27.00;;
29574;SDS011;16507;51.046;6.406;2023-03-03T21:52:29;79.75;;;28.08;;
29574;SDS011;16507;51.046;6.406;2023-03-03T21:54:56;71.93;;;25.58;;
29574;SDS011;16507;51.046;6.406;2023-03-03T21:57:21;72.85;;;25.80;;
29574;SDS011;16507;51.046;6.406;2023-03-03T21:59:48;73.05;;;25.38;;
29574;SDS011;16507;51.046;6.406;2023-03-03T22:02:14;72.43;;;25.83;;
29574;SDS011;16507;51.046;6.406;2023-03-03T22:04:40;71.95;;;25.33;;
29574;SDS011;16507;51.046;6.406;2023-03-03T22:07:06;65.28;;;25.98;;
29574;SDS011;16507;51.046;6.406;2023-03-03T22:09:32;71.60;;;26.52;;